Time;durP1;ratioP1;P1;durP2;ratioP2;P2;SDS_P1;SDS_P2;PMS_P1;PMS_P2;Temp;Humidity;BMP_temperature;BMP_pressure;BME280_temperature;BME280_humidity;BME280_pressure;Samples;Min_cycle;Max_cycle;Signal;HPM_P1;HPM_P2
2022/08/14 00:02:04;;;;;;;11.15;9.18;;;20.30;99.90;;;;;;7393133;19;20014;-81
2022/08/14 00:04:32;;;;;;;11.70;10.40;;;20.30;99.90;;;;;;7393045;19;20011;-81
2022/08/14 00:06:58;;;;;;;10.52;9.38;;;20.30;99.90;;;;;;7399123;19;20066;-81
2022/08/14 00:09:24;;;;;;;14.68;10.13;;;20.30;99.90;;;;;;7404197;19;20538;-81
2022/08/14 00:11:50;;;;;;;10.80;9.20;;;20.30;99.90;;;;;;7400010;19;20015;-81
2022/08/14 00:14:16;;;;;;;10.70;9.00;;;20.30;99.90;;;;;;7400249;19;20010;-82
2022/08/14 00:16:42;;;;;;;11.57;10.43;;;20.30;99.90;;;;;;7398512;19;20498;-81
2022/08/14 00:19:08;;;;;;;12.10;10.55;;;20.30;99.90;;;;;;7399786;19;20364;-81
2022/08/14 00:21:35;;;;;;;12.45;10.77;;;20.40;99.90;;;;;;7395853;19;20011;-81
2022/08/14 00:24:03;;;;;;;12.43;10.60;;;20.40;99.90;;;;;;7398659;19;20022;-81
2022/08/14 00:26:29;;;;;;;12.18;10.93;;;20.40;99.90;;;;;;7396738;19;20025;-81
2022/08/14 00:28:55;;;;;;;13.82;10.85;;;20.40;99.90;;;;;;7397947;19;20013;-81
2022/08/14 00:31:22;;;;;;;12.85;10.60;;;20.30;99.90;;;;;;7399450;19;20038;-81
2022/08/14 00:33:48;;;;;;;12.50;10.43;;;20.30;99.90;;;;;;7399646;19;20015;-81
2022/08/14 00:36:14;;;;;;;13.43;11.20;;;20.30;99.90;;;;;;7397173;19;20022;-80
2022/08/14 00:38:40;;;;;;;12.85;10.70;;;20.30;99.90;;;;;;7399730;19;20011;-81
2022/08/14 00:41:09;;;;;;;11.45;10.25;;;20.20;99.90;;;;;;7396394;19;20031;-81
2022/08/14 00:43:35;;;;;;;13.20;11.27;;;20.20;99.90;;;;;;7399160;19;20086;-81
2022/08/14 00:46:09;;;;;;;12.70;11.40;;;20.20;99.90;;;;;;7397482;19;20031;-81
2022/08/14 00:48:35;;;;;;;12.48;11.32;;;20.20;99.90;;;;;;7399112;19;20017;-81
2022/08/14 00:51:05;;;;;;;12.48;11.27;;;20.20;99.90;;;;;;7398857;19;20015;-81
2022/08/14 00:53:31;;;;;;;16.27;12.15;;;20.30;99.90;;;;;;7398644;19;20011;-81
2022/08/14 00:55:59;;;;;;;15.43;11.75;;;20.30;99.90;;;;;;7396722;19;20022;-81
2022/08/14 00:58:30;;;;;;;14.45;11.57;;;20.20;99.90;;;;;;7399007;19;20081;-81
2022/08/14 01:01:13;;;;;;;12.57;11.07;;;20.20;99.90;;;;;;7395908;19;20017;-81
2022/08/14 01:03:40;;;;;;;12.40;11.15;;;20.20;99.90;;;;;;7396918;19;20367;-81
2022/08/14 01:06:09;;;;;;;13.60;12.20;;;20.20;99.90;;;;;;7398301;19;20018;-81
2022/08/14 01:08:37;;;;;;;15.32;12.38;;;20.10;99.90;;;;;;7401784;19;20010;-81
2022/08/14 01:11:04;;;;;;;13.35;12.02;;;20.10;99.90;;;;;;7396631;19;20011;-81
2022/08/14 01:13:34;;;;;;;14.23;12.27;;;20.10;99.90;;;;;;7396265;19;20042;-81
2022/08/14 01:16:02;;;;;;;13.02;11.82;;;20.10;99.90;;;;;;7398420;19;20498;-81
2022/08/14 01:21:23;;;;;;;12.93;11.63;;;20.10;99.90;;;;;;7396437;19;20012;-81
2022/08/14 01:23:52;;;;;;;13.05;11.55;;;20.10;99.90;;;;;;7397517;19;20023;-81
2022/08/14 01:26:20;;;;;;;12.95;11.57;;;20.10;99.90;;;;;;7393873;19;20035;-81
2022/08/14 01:28:48;;;;;;;12.25;11.00;;;20.10;99.90;;;;;;7396060;19;20036;-81
2022/08/14 01:31:16;;;;;;;12.07;10.77;;;20.20;99.90;;;;;;7396154;19;20014;-81
2022/08/14 01:33:47;;;;;;;11.73;10.55;;;20.20;99.90;;;;;;7397165;19;20018;-81
2022/08/14 01:36:16;;;;;;;12.73;11.52;;;20.20;99.90;;;;;;7395759;19;20014;-81
2022/08/14 01:38:44;;;;;;;12.70;11.15;;;20.30;99.90;;;;;;7395693;19;20031;-81
2022/08/14 01:41:14;;;;;;;12.52;11.32;;;20.30;99.90;;;;;;7394419;19;20037;-81
2022/08/14 01:43:52;;;;;;;12.02;10.82;;;20.30;99.90;;;;;;7396960;19;20031;-82
2022/08/14 01:46:21;;;;;;;11.70;10.50;;;20.30;99.90;;;;;;7395875;19;20041;-81
2022/08/14 01:48:47;;;;;;;12.25;10.95;;;20.30;99.90;;;;;;7396761;19;20368;-82
2022/08/14 01:51:15;;;;;;;12.43;11.13;;;20.30;99.90;;;;;;7395314;19;20018;-82
2022/08/14 01:53:46;;;;;;;13.73;11.30;;;20.30;99.90;;;;;;7396756;19;20007;-81
2022/08/14 01:56:17;;;;;;;12.02;10.57;;;20.30;99.90;;;;;;7396258;19;20018;-81
2022/08/14 01:58:47;;;;;;;12.40;11.20;;;20.30;99.90;;;;;;7396437;19;20408;-81
2022/08/14 02:01:17;;;;;;;13.38;11.15;;;20.30;99.90;;;;;;7395164;19;20081;-81
2022/08/14 02:03:44;;;;;;;12.07;10.93;;;20.30;99.90;;;;;;7396508;19;20095;-82
2022/08/14 02:06:11;;;;;;;14.65;10.70;;;20.30;99.90;;;;;;7395170;19;20021;-82
2022/08/14 02:08:39;;;;;;;13.10;11.65;;;20.30;99.90;;;;;;7395134;19;20010;-82
2022/08/14 02:11:20;;;;;;;12.55;11.25;;;20.20;99.90;;;;;;7396095;19;20006;-81
2022/08/14 02:13:55;;;;;;;13.52;11.90;;;20.20;99.90;;;;;;7396360;19;20516;-82
2022/08/14 02:16:28;;;;;;;13.65;12.13;;;20.10;99.90;;;;;;7394322;19;20026;-81
2022/08/14 02:18:57;;;;;;;12.00;10.70;;;20.10;99.90;;;;;;7396210;19;20030;-82
2022/08/14 02:21:25;;;;;;;12.73;11.43;;;20.10;99.90;;;;;;7394648;19;20353;-82
2022/08/14 02:23:53;;;;;;;12.70;11.00;;;20.10;99.90;;;;;;7394414;19;20015;-82
2022/08/14 02:26:28;;;;;;;13.10;11.80;;;20.10;99.90;;;;;;7393665;19;20019;-82
2022/08/14 02:29:00;;;;;;;13.65;11.93;;;20.00;99.90;;;;;;7393062;19;20018;-82
2022/08/14 02:31:31;;;;;;;13.60;12.27;;;20.00;99.90;;;;;;7395305;19;20018;-81
2022/08/14 02:34:02;;;;;;;13.85;12.35;;;19.90;99.90;;;;;;7395322;19;20010;-82
2022/08/14 02:36:27;;;;;;;14.40;13.00;;;19.90;99.90;;;;;;7395391;19;20011;-81
2022/08/14 02:38:53;;;;;;;16.63;13.15;;;19.80;99.90;;;;;;7395594;19;20042;-81
2022/08/14 02:41:19;;;;;;;13.60;12.20;;;19.80;99.90;;;;;;7393878;19;20022;-81
2022/08/14 02:43:45;;;;;;;13.52;12.27;;;19.80;99.90;;;;;;7395015;19;20006;-81
2022/08/14 02:46:11;;;;;;;14.32;12.93;;;19.80;99.90;;;;;;7395161;19;20006;-81
2022/08/14 02:48:40;;;;;;;14.40;13.07;;;19.70;99.90;;;;;;7395131;19;20011;-81
2022/08/14 02:51:12;;;;;;;13.65;12.35;;;19.70;99.90;;;;;;7394947;19;20006;-81
2022/08/14 02:53:44;;;;;;;14.53;13.23;;;19.60;99.90;;;;;;7395231;19;20365;-82
2022/08/14 02:56:16;;;;;;;13.53;12.00;;;19.60;99.90;;;;;;7394344;19;20014;-81
2022/08/14 02:58:45;;;;;;;14.30;12.87;;;19.60;99.90;;;;;;7394547;19;20376;-81
2022/08/14 03:01:14;;;;;;;15.80;13.52;;;19.60;99.90;;;;;;7393655;19;20026;-81
2022/08/14 03:03:40;;;;;;;17.05;14.15;;;19.60;99.90;;;;;;7394879;19;20486;-81
2022/08/14 03:06:07;;;;;;;15.18;13.68;;;19.50;99.90;;;;;;7396678;19;20010;-81
2022/08/14 03:08:35;;;;;;;15.75;14.25;;;19.50;99.90;;;;;;7394266;19;20011;-81
2022/08/14 03:11:05;;;;;;;14.75;13.38;;;19.50;99.90;;;;;;7392631;19;20126;-81
2022/08/14 03:13:34;;;;;;;14.63;13.13;;;19.40;99.90;;;;;;7394448;19;20022;-82
2022/08/14 03:16:02;;;;;;;14.88;13.48;;;19.40;99.90;;;;;;7394139;19;20346;-81
2022/08/14 03:18:29;;;;;;;14.82;13.27;;;19.40;99.90;;;;;;7394367;19;20010;-81
2022/08/14 03:20:55;;;;;;;15.85;14.25;;;19.30;99.90;;;;;;7392980;19;20014;-81
2022/08/14 03:23:21;;;;;;;15.13;13.45;;;19.20;99.90;;;;;;7393678;19;20022;-82
2022/08/14 03:25:47;;;;;;;15.90;13.65;;;19.20;99.90;;;;;;7390697;19;20011;-82
2022/08/14 03:28:13;;;;;;;15.80;13.98;;;19.20;99.90;;;;;;7393702;19;20086;-82
2022/08/14 03:30:39;;;;;;;16.23;14.63;;;19.20;99.90;;;;;;7394032;19;20025;-82
2022/08/14 03:33:07;;;;;;;15.52;13.90;;;19.20;99.90;;;;;;7393783;19;20078;-82
2022/08/14 03:35:34;;;;;;;15.80;13.70;;;19.20;99.90;;;;;;7392556;19;20014;-82
2022/08/14 03:38:08;;;;;;;16.77;15.00;;;19.20;99.90;;;;;;7393993;19;20014;-82
2022/08/14 03:40:37;;;;;;;16.30;14.63;;;19.10;99.90;;;;;;7389272;19;20082;-82
2022/08/14 03:43:07;;;;;;;15.60;14.10;;;19.10;99.90;;;;;;7393526;19;20015;-82
2022/08/14 03:45:34;;;;;;;14.93;13.52;;;19.10;99.90;;;;;;7391590;19;20482;-82
2022/08/14 03:48:03;;;;;;;15.50;13.50;;;19.10;99.90;;;;;;7393449;19;20007;-82
2022/08/14 03:50:31;;;;;;;15.77;13.55;;;19.10;99.90;;;;;;7392900;19;20348;-81
2022/08/14 03:53:00;;;;;;;14.80;13.30;;;19.10;99.90;;;;;;7392681;19;20373;-81
2022/08/14 03:55:27;;;;;;;14.50;13.20;;;19.10;99.90;;;;;;7392609;19;20011;-82
2022/08/14 03:57:54;;;;;;;15.27;13.73;;;19.20;99.90;;;;;;7392801;19;20014;-82
2022/08/14 04:00:20;;;;;;;16.42;13.15;;;19.30;99.90;;;;;;7392229;19;20155;-82
2022/08/14 04:02:48;;;;;;;14.57;13.13;;;19.30;99.90;;;;;;7391023;19;20114;-82
2022/08/14 04:05:14;;;;;;;14.55;13.05;;;19.30;99.90;;;;;;7394533;19;20006;-81
2022/08/14 04:07:40;;;;;;;15.45;13.85;;;19.30;99.90;;;;;;7392564;19;20040;-81
2022/08/14 04:10:07;;;;;;;14.40;13.10;;;19.40;99.90;;;;;;7393058;19;20066;-82
2022/08/14 04:12:35;;;;;;;14.90;13.40;;;19.30;99.90;;;;;;7393162;19;20015;-82
2022/08/14 04:15:01;;;;;;;15.15;13.18;;;19.30;99.90;;;;;;7392839;19;20049;-82
2022/08/14 04:17:28;;;;;;;14.43;12.65;;;19.30;99.90;;;;;;7392806;19;20471;-82
2022/08/14 04:19:54;;;;;;;14.57;13.10;;;19.30;99.90;;;;;;7392041;19;20051;-82
2022/08/14 04:22:21;;;;;;;16.60;14.20;;;19.30;99.90;;;;;;7392525;19;20015;-82
2022/08/14 04:24:46;;;;;;;14.75;12.80;;;19.30;99.90;;;;;;7390245;19;20073;-82
2022/08/14 04:27:12;;;;;;;14.32;12.88;;;19.30;99.90;;;;;;7392286;19;20066;-81
2022/08/14 04:29:40;;;;;;;16.13;13.07;;;19.40;99.90;;;;;;7392763;19;20007;-81
2022/08/14 04:32:08;;;;;;;14.60;13.10;;;19.40;99.90;;;;;;7392472;19;20010;-82
2022/08/14 04:34:40;;;;;;;14.00;12.60;;;19.40;99.90;;;;;;7391236;19;20021;-82
2022/08/14 04:45:31;;;;;;;14.35;12.38;;;19.60;99.90;;;;;;7391686;19;20018;-82
2022/08/14 04:48:12;;;;;;;15.77;12.88;;;19.60;99.90;;;;;;7391485;19;20087;-82
2022/08/14 04:50:47;;;;;;;15.65;13.05;;;19.60;99.90;;;;;;7391722;19;20022;-82
2022/08/14 04:53:17;;;;;;;14.13;12.82;;;19.60;99.90;;;;;;7397682;19;20479;-82
2022/08/14 04:55:47;;;;;;;15.30;13.70;;;19.50;99.90;;;;;;7398148;19;20010;-82
2022/08/14 04:58:19;;;;;;;15.43;13.98;;;19.60;99.90;;;;;;7398684;19;20014;-82
2022/08/14 05:00:49;;;;;;;14.88;13.35;;;19.50;99.90;;;;;;7397319;19;20027;-82
2022/08/14 05:03:19;;;;;;;15.52;14.00;;;19.50;99.90;;;;;;7398953;19;20039;-82
2022/08/14 05:05:53;;;;;;;15.20;13.55;;;19.50;99.90;;;;;;7403047;19;20010;-82
2022/08/14 05:08:19;;;;;;;15.50;13.38;;;19.40;99.90;;;;;;7398354;19;20082;-82
2022/08/14 05:10:50;;;;;;;14.07;12.65;;;19.50;99.90;;;;;;7396913;19;20019;-82
2022/08/14 05:13:17;;;;;;;15.25;12.30;;;19.50;99.90;;;;;;7398236;19;20347;-82
2022/08/14 05:15:45;;;;;;;13.07;11.75;;;19.50;99.90;;;;;;7397103;19;20026;-82
2022/08/14 05:18:13;;;;;;;13.43;12.13;;;19.60;99.90;;;;;;7398032;19;20027;-82
2022/08/14 05:20:44;;;;;;;13.60;12.30;;;19.70;99.90;;;;;;7395722;19;20025;-82
2022/08/14 05:23:11;;;;;;;13.70;12.05;;;19.70;99.90;;;;;;7397703;19;20013;-82
2022/08/14 05:25:37;;;;;;;16.23;12.25;;;19.70;99.90;;;;;;7395993;19;20031;-82
2022/08/14 05:28:07;;;;;;;13.43;12.13;;;19.70;99.90;;;;;;7397830;19;20010;-82
2022/08/14 05:30:33;;;;;;;15.38;13.00;;;19.70;99.90;;;;;;7397433;19;20023;-81
2022/08/14 05:33:00;;;;;;;14.68;13.02;;;19.80;99.90;;;;;;7397298;19;20022;-82
2022/08/14 05:35:26;;;;;;;13.35;12.00;;;19.80;99.90;;;;;;7396076;19;20341;-82
2022/08/14 05:37:52;;;;;;;17.83;13.20;;;20.00;99.90;;;;;;7397476;19;20018;-82
2022/08/14 05:40:18;;;;;;;13.85;12.50;;;20.30;99.90;;;;;;7395242;19;20403;-82
2022/08/14 05:42:44;;;;;;;14.07;12.70;;;20.40;99.90;;;;;;7395725;19;20011;-82
2022/08/14 05:45:13;;;;;;;15.88;14.25;;;20.30;99.90;;;;;;7397132;19;20006;-82
2022/08/14 05:47:40;;;;;;;15.25;13.65;;;20.30;99.90;;;;;;7395491;19;20010;-82
2022/08/14 05:50:09;;;;;;;14.32;12.95;;;20.30;99.90;;;;;;7397142;19;20090;-82
2022/08/14 05:52:36;;;;;;;17.05;14.25;;;20.40;99.90;;;;;;7395240;19;20345;-82
2022/08/14 05:55:03;;;;;;;15.45;13.73;;;20.40;99.90;;;;;;7396825;19;20344;-82
2022/08/14 05:57:29;;;;;;;14.85;13.23;;;20.40;99.90;;;;;;7396660;19;20018;-82
2022/08/14 05:59:55;;;;;;;14.23;12.82;;;20.50;99.90;;;;;;7395495;19;20027;-82
2022/08/14 06:02:20;;;;;;;15.50;13.77;;;20.50;99.90;;;;;;7396503;19;20014;-82
2022/08/14 06:04:47;;;;;;;15.05;13.55;;;20.50;99.90;;;;;;7398531;19;20102;-82
2022/08/14 06:07:16;;;;;;;14.90;13.30;;;20.60;99.90;;;;;;7396759;19;20078;-82
2022/08/14 06:09:42;;;;;;;15.50;13.93;;;20.60;99.90;;;;;;7396781;19;20030;-82
2022/08/14 06:12:08;;;;;;;15.38;13.45;;;20.70;99.90;;;;;;7394704;19;20014;-81
2022/08/14 06:14:35;;;;;;;15.63;14.13;;;20.70;99.90;;;;;;7396471;19;20026;-82
2022/08/14 06:17:04;;;;;;;14.43;13.02;;;20.80;99.90;;;;;;7394695;19;20019;-81
2022/08/14 06:19:30;;;;;;;16.17;14.45;;;20.90;99.90;;;;;;7396515;19;20095;-82
2022/08/14 06:21:56;;;;;;;16.20;13.13;;;21.00;99.90;;;;;;7392457;19;20082;-82
2022/08/14 06:24:22;;;;;;;14.15;12.75;;;21.10;99.90;;;;;;7395952;19;20023;-81
2022/08/14 06:26:48;;;;;;;17.08;13.63;;;21.20;99.90;;;;;;7395206;19;20015;-82
2022/08/14 06:29:14;;;;;;;16.95;14.18;;;21.20;99.90;;;;;;7395832;19;20057;-82
2022/08/14 06:31:39;;;;;;;15.00;13.32;;;21.30;99.90;;;;;;7395366;19;20034;-81
2022/08/14 06:34:05;;;;;;;15.88;13.30;;;21.40;99.90;;;;;;7393839;19;20026;-81
2022/08/14 06:36:31;;;;;;;13.68;12.35;;;21.60;99.90;;;;;;7395809;19;20015;-82
2022/08/14 06:38:58;;;;;;;14.90;13.15;;;21.80;99.90;;;;;;7395531;19;20032;-81
2022/08/14 06:41:24;;;;;;;14.30;13.02;;;21.90;99.90;;;;;;7392104;19;20007;-82
2022/08/14 06:43:49;;;;;;;16.33;13.70;;;22.20;99.90;;;;;;7393782;19;20018;-82
2022/08/14 06:46:16;;;;;;;11.93;10.80;;;22.20;99.90;;;;;;7396128;19;20112;-81
2022/08/14 06:48:42;;;;;;;14.23;12.80;;;22.30;99.90;;;;;;7395103;19;20010;-82
2022/08/14 06:51:08;;;;;;;14.68;13.15;;;22.30;99.90;;;;;;7394970;19;20027;-82
2022/08/14 06:53:33;;;;;;;12.82;11.63;;;22.40;99.90;;;;;;7393525;19;20011;-82
2022/08/14 06:55:59;;;;;;;13.75;12.25;;;22.50;99.90;;;;;;7392389;19;20014;-82
2022/08/14 06:58:25;;;;;;;13.52;12.25;;;22.60;99.90;;;;;;7394701;19;20074;-81
2022/08/14 07:06:33;;;;;;;12.23;10.73;;;23.50;99.90;;;;;;7390789;19;20025;-82
2022/08/14 07:08:59;;;;;;;12.25;10.55;;;24.50;99.90;;;;;;7394547;19;20066;-82
2022/08/14 07:11:25;;;;;;;15.05;9.82;;;25.20;99.90;;;;;;7394186;19;20014;-81
2022/08/14 07:13:51;;;;;;;11.40;9.60;;;25.60;99.90;;;;;;7394184;19;20010;-82
2022/08/14 07:16:16;;;;;;;9.95;9.00;;;25.60;99.90;;;;;;7392280;19;20030;-82
2022/08/14 07:18:42;;;;;;;10.10;8.57;;;25.40;99.90;;;;;;7394569;19;20014;-82
2022/08/14 07:21:08;;;;;;;9.00;8.02;;;25.40;99.90;;;;;;7393061;19;20090;-81
2022/08/14 07:23:35;;;;;;;9.50;8.55;;;25.10;99.90;;;;;;7393909;19;20602;-81
2022/08/14 07:26:02;;;;;;;9.07;8.18;;;25.20;99.90;;;;;;7392088;19;20014;-81
2022/08/14 07:28:36;;;;;;;11.10;8.10;;;25.20;99.90;;;;;;7392385;19;20013;-81
2022/08/14 07:31:05;;;;;;;9.45;8.05;;;25.40;99.90;;;;;;7393842;19;20014;-81
2022/08/14 07:33:39;;;;;;;9.57;8.63;;;26.20;99.90;;;;;;7393615;19;20013;-82
2022/08/14 07:36:08;;;;;;;9.82;7.03;;;26.80;99.90;;;;;;7392127;19;20018;-81
2022/08/14 07:38:35;;;;;;;8.10;7.30;;;27.10;99.90;;;;;;7393906;19;20014;-82
2022/08/14 07:41:04;;;;;;;8.15;7.32;;;27.70;99.90;;;;;;7390977;19;20022;-82
2022/08/14 07:43:29;;;;;;;8.95;7.63;;;28.20;99.90;;;;;;7391941;19;20218;-82
2022/08/14 07:45:55;;;;;;;8.15;7.35;;;28.40;99.90;;;;;;7393232;19;20344;-82
2022/08/14 07:48:22;;;;;;;7.43;6.35;;;28.70;99.90;;;;;;7393311;19;20029;-82
2022/08/14 07:50:49;;;;;;;7.97;7.18;;;29.20;99.70;;;;;;7393011;19;20019;-82
2022/08/14 07:53:18;;;;;;;8.18;6.78;;;29.30;99.60;;;;;;7391592;19;20021;-82
2022/08/14 07:55:47;;;;;;;7.47;6.78;;;29.10;99.20;;;;;;7392816;19;20022;-81
2022/08/14 07:58:14;;;;;;;7.57;6.88;;;29.10;98.60;;;;;;7393105;19;20014;-81
2022/08/14 08:00:41;;;;;;;7.13;6.53;;;29.00;98.40;;;;;;7392400;19;20578;-82
2022/08/14 08:03:10;;;;;;;7.40;6.65;;;28.70;98.50;;;;;;7393096;19;20076;-82
2022/08/14 08:05:39;;;;;;;6.95;6.35;;;28.80;98.80;;;;;;7391317;19;20358;-81
2022/08/14 08:08:06;;;;;;;6.90;6.30;;;28.80;98.90;;;;;;7391331;19;20014;-81
2022/08/14 08:10:33;;;;;;;10.80;6.60;;;28.70;98.40;;;;;;7392927;19;20017;-81
2022/08/14 08:13:09;;;;;;;8.77;6.60;;;29.10;98.50;;;;;;7392544;19;20011;-81
2022/08/14 08:15:39;;;;;;;9.23;6.95;;;29.00;98.00;;;;;;7392281;19;20018;-81
2022/08/14 08:18:07;;;;;;;8.63;6.68;;;29.30;98.30;;;;;;7392898;19;20021;-81
2022/08/14 08:20:36;;;;;;;7.25;6.55;;;29.30;98.50;;;;;;7391799;19;20019;-82
2022/08/14 08:23:04;;;;;;;7.05;6.25;;;29.60;98.40;;;;;;7391483;19;20006;-81
2022/08/14 08:25:34;;;;;;;8.50;7.70;;;29.80;98.00;;;;;;7390921;19;20337;-81
2022/08/14 08:28:09;;;;;;;8.20;7.43;;;29.90;97.40;;;;;;7396853;19;20010;-82
2022/08/14 08:30:38;;;;;;;7.55;6.80;;;29.60;97.30;;;;;;7399905;19;20017;-81
2022/08/14 08:33:05;;;;;;;7.07;6.47;;;29.70;96.90;;;;;;7399278;19;20498;-82
2022/08/14 08:35:37;;;;;;;9.00;8.10;;;29.80;97.00;;;;;;7398122;19;20011;-82
2022/08/14 08:38:06;;;;;;;8.05;7.00;;;29.70;97.10;;;;;;7399507;19;20007;-81
2022/08/14 08:40:35;;;;;;;8.00;7.20;;;29.20;97.50;;;;;;7396799;19;20588;-81
2022/08/14 08:43:07;;;;;;;7.43;6.80;;;28.90;98.10;;;;;;7399324;19;20498;-80
2022/08/14 08:45:35;;;;;;;7.35;6.65;;;28.50;98.30;;;;;;7399359;19;20011;-81
2022/08/14 08:48:02;;;;;;;7.75;7.05;;;28.10;98.60;;;;;;7398841;19;20033;-81
2022/08/14 08:50:33;;;;;;;9.20;6.88;;;27.90;99.10;;;;;;7399036;19;20027;-81
2022/08/14 08:53:02;;;;;;;7.43;6.70;;;27.90;99.70;;;;;;7399273;19;20010;-81
2022/08/14 08:55:35;;;;;;;6.90;6.30;;;27.90;99.50;;;;;;7397396;19;20010;-81
2022/08/14 08:58:04;;;;;;;8.05;7.10;;;27.80;98.80;;;;;;7397319;19;20010;-81
2022/08/14 09:00:33;;;;;;;7.65;6.95;;;27.70;99.30;;;;;;7396893;19;20501;-81
2022/08/14 09:03:07;;;;;;;9.10;7.70;;;27.70;99.50;;;;;;7398217;19;20483;-81
2022/08/14 09:05:35;;;;;;;9.10;7.47;;;27.80;99.20;;;;;;7397218;19;20014;-80
2022/08/14 09:08:19;;;;;;;8.10;7.07;;;27.70;99.10;;;;;;7397147;19;20018;-81
2022/08/14 09:10:47;;;;;;;8.60;7.70;;;27.70;98.90;;;;;;7398288;19;20021;-81
2022/08/14 09:13:14;;;;;;;8.52;7.32;;;27.70;99.00;;;;;;7398189;19;20022;-81
2022/08/14 09:15:46;;;;;;;8.18;7.47;;;27.80;99.30;;;;;;7398294;19;20048;-82
2022/08/14 09:18:14;;;;;;;7.70;7.00;;;27.90;99.30;;;;;;7398130;19;20022;-82
2022/08/14 09:20:42;;;;;;;8.75;7.85;;;28.00;99.30;;;;;;7397183;19;20011;-81
2022/08/14 09:23:09;;;;;;;9.13;7.28;;;28.00;99.10;;;;;;7398173;19;20034;-82
2022/08/14 09:25:36;;;;;;;9.00;8.13;;;28.10;98.90;;;;;;7394637;19;20079;-82
2022/08/14 09:28:05;;;;;;;9.13;8.20;;;28.10;99.10;;;;;;7397838;19;20033;-81
2022/08/14 09:30:34;;;;;;;7.90;7.10;;;28.10;98.60;;;;;;7396437;19;20026;-81
2022/08/14 09:33:03;;;;;;;7.75;6.95;;;28.10;98.70;;;;;;7397527;19;20409;-81
2022/08/14 09:35:56;;;;;;;8.13;7.30;;;28.10;98.70;;;;;;7396145;19;20519;-81
2022/08/14 09:38:34;;;;;;;8.57;7.10;;;28.10;98.40;;;;;;7395519;19;20027;-82
2022/08/14 09:41:36;;;;;;;8.55;7.22;;;28.20;98.60;;;;;;7394633;19;20025;-81
2022/08/14 09:44:24;;;;;;;8.30;7.57;;;28.20;98.50;;;;;;7394822;19;20351;-81
2022/08/14 09:46:57;;;;;;;8.43;6.35;;;28.30;99.20;;;;;;7397155;19;20014;-80
2022/08/14 09:49:34;;;;;;;8.55;6.50;;;28.40;98.40;;;;;;7397361;19;20021;-81
2022/08/14 09:52:11;;;;;;;7.53;6.68;;;28.60;98.40;;;;;;7396396;19;20038;-81
2022/08/14 09:54:42;;;;;;;7.30;6.60;;;28.70;98.20;;;;;;7397169;19;20011;-81
2022/08/14 09:57:12;;;;;;;6.57;6.07;;;28.70;97.60;;;;;;7396320;19;20002;-81
2022/08/14 09:59:46;;;;;;;7.15;6.32;;;28.70;97.50;;;;;;7397982;19;20026;-81
2022/08/14 10:02:21;;;;;;;7.05;6.35;;;28.80;97.60;;;;;;7394417;19;20499;-81
2022/08/14 10:05:11;;;;;;;8.43;6.20;;;28.80;97.20;;;;;;7396177;19;20018;-81
2022/08/14 10:07:50;;;;;;;7.20;6.50;;;28.80;97.50;;;;;;7396870;19;20019;-81
2022/08/14 10:10:30;;;;;;;7.68;6.13;;;29.00;97.20;;;;;;7396299;19;20018;-81
2022/08/14 10:12:56;;;;;;;6.63;5.82;;;28.80;97.00;;;;;;7395180;19;20014;-81
2022/08/14 10:15:25;;;;;;;7.25;6.07;;;29.00;97.20;;;;;;7396182;19;20011;-82
2022/08/14 10:18:12;;;;;;;7.20;6.00;;;29.20;97.20;;;;;;7396038;19;20475;-81
2022/08/14 10:20:51;;;;;;;7.35;6.40;;;29.20;96.80;;;;;;7395306;19;20018;-82
2022/08/14 10:23:19;;;;;;;6.60;5.90;;;29.20;96.30;;;;;;7395617;19;20018;-81
2022/08/14 10:25:51;;;;;;;6.70;6.10;;;29.20;96.80;;;;;;7394541;19;20011;-81
2022/08/14 10:28:19;;;;;;;6.90;6.30;;;29.30;96.50;;;;;;7395735;19;20017;-81
2022/08/14 10:30:49;;;;;;;6.75;6.07;;;29.20;96.20;;;;;;7395732;19;20483;-81
2022/08/14 10:33:30;;;;;;;6.82;6.13;;;29.10;96.40;;;;;;7395456;19;20021;-81
2022/08/14 10:35:59;;;;;;;6.97;5.90;;;29.10;96.20;;;;;;7392585;19;20031;-81
2022/08/14 10:38:34;;;;;;;7.85;5.40;;;29.30;96.40;;;;;;7394165;19;20038;-82
2022/08/14 10:41:16;;;;;;;6.70;5.88;;;29.40;96.10;;;;;;7395024;19;20029;-81
2022/08/14 10:44:05;;;;;;;7.85;5.63;;;29.60;95.40;;;;;;7394143;19;20033;-81
2022/08/14 10:46:39;;;;;;;6.20;5.60;;;29.60;95.50;;;;;;7395221;19;20009;-81
2022/08/14 10:49:08;;;;;;;7.80;5.78;;;29.50;95.10;;;;;;7394995;19;20758;-81
2022/08/14 10:51:34;;;;;;;6.20;5.70;;;29.50;95.30;;;;;;7393831;19;20074;-81
2022/08/14 10:54:06;;;;;;;6.25;5.72;;;29.50;95.50;;;;;;7393307;19;20024;-82
2022/08/14 10:56:34;;;;;;;6.15;5.55;;;29.70;95.60;;;;;;7394839;19;20018;-81
2022/08/14 10:59:07;;;;;;;6.35;5.75;;;29.90;95.40;;;;;;7394296;19;20015;-81
2022/08/14 11:01:38;;;;;;;6.97;5.68;;;29.90;95.50;;;;;;7391935;19;20014;-81
2022/08/14 11:04:04;;;;;;;8.25;6.18;;;29.80;95.00;;;;;;7394577;19;20022;-81
2022/08/14 11:06:32;;;;;;;6.32;5.75;;;29.90;94.80;;;;;;7394485;19;20487;-81
2022/08/14 11:08:58;;;;;;;8.43;6.38;;;30.00;94.70;;;;;;7394115;19;20021;-81
2022/08/14 11:11:26;;;;;;;6.28;5.68;;;29.90;94.80;;;;;;7394488;19;20010;-82
2022/08/14 11:13:56;;;;;;;6.68;6.00;;;30.00;94.60;;;;;;7392537;19;20021;-82
2022/08/14 11:16:23;;;;;;;7.80;6.50;;;30.10;94.60;;;;;;7393784;19;20020;-81
2022/08/14 11:18:49;;;;;;;8.48;6.25;;;30.10;94.40;;;;;;7393915;19;20014;-82
2022/08/14 11:21:18;;;;;;;6.60;5.90;;;29.90;94.40;;;;;;7393474;19;20017;-81
2022/08/14 11:23:48;;;;;;;7.03;6.38;;;29.90;94.80;;;;;;7393820;19;20006;-81
2022/08/14 11:26:19;;;;;;;8.50;6.70;;;29.90;94.20;;;;;;7392217;19;20007;-82
2022/08/14 11:28:49;;;;;;;7.35;6.00;;;30.00;94.10;;;;;;7393603;19;20363;-81
2022/08/14 11:31:22;;;;;;;7.18;6.07;;;30.20;94.20;;;;;;7393851;19;20019;-82
2022/08/14 11:33:53;;;;;;;7.00;6.30;;;30.10;94.60;;;;;;7393618;19;20014;-81
2022/08/14 11:36:23;;;;;;;9.57;6.82;;;30.10;94.50;;;;;;7391652;19;20020;-81
2022/08/14 11:38:49;;;;;;;9.35;6.50;;;30.20;93.90;;;;;;7393516;19;20497;-80
2022/08/14 11:41:15;;;;;;;7.13;6.43;;;30.10;94.40;;;;;;7392217;19;20007;-81
2022/08/14 11:43:42;;;;;;;8.93;6.40;;;30.10;94.00;;;;;;7391318;19;20467;-81
2022/08/14 11:46:09;;;;;;;9.65;6.43;;;30.30;94.10;;;;;;7393077;19;20014;-81
2022/08/14 11:48:47;;;;;;;7.75;6.93;;;30.30;93.90;;;;;;7393528;19;20336;-81
2022/08/14 11:51:24;;;;;;;7.57;6.72;;;30.20;93.70;;;;;;7391401;19;20006;-81
2022/08/14 11:54:06;;;;;;;7.85;6.78;;;30.20;93.30;;;;;;7392822;19;20650;-81
2022/08/14 11:56:36;;;;;;;7.97;6.60;;;30.40;93.60;;;;;;7392151;19;20017;-79
2022/08/14 11:59:04;;;;;;;7.47;6.70;;;30.30;93.60;;;;;;7395991;19;20074;-80
2022/08/14 12:01:30;;;;;;;8.30;6.47;;;30.30;93.90;;;;;;7392602;19;21115;-79
2022/08/14 12:04:12;;;;;;;9.10;6.60;;;30.50;94.10;;;;;;7399226;19;20031;-79
2022/08/14 12:06:54;;;;;;;8.07;6.75;;;30.70;94.10;;;;;;7400484;19;20007;-80
2022/08/14 12:09:34;;;;;;;8.00;6.78;;;30.50;93.90;;;;;;7400760;19;20014;-79
2022/08/14 12:12:11;;;;;;;9.23;6.88;;;30.40;93.70;;;;;;7400248;19;20014;-79
2022/08/14 12:14:47;;;;;;;7.50;6.65;;;30.40;93.90;;;;;;7399879;19;20053;-79
2022/08/14 12:17:13;;;;;;;8.02;7.22;;;30.50;93.40;;;;;;7400381;19;20011;-80
2022/08/14 12:20:04;;;;;;;8.65;6.55;;;30.50;93.60;;;;;;7399855;19;20493;-80
2022/08/14 12:22:37;;;;;;;8.20;6.10;;;30.70;93.80;;;;;;7396050;19;20006;-80
2022/08/14 12:25:06;;;;;;;8.45;7.35;;;30.80;93.60;;;;;;7398837;19;20015;-79
2022/08/14 12:27:39;;;;;;;7.70;6.90;;;30.70;93.10;;;;;;7399296;19;20038;-80
2022/08/14 12:30:05;;;;;;;;;;;30.90;93.40;;;;;;7400158;19;20010;-80
2022/08/14 12:32:58;;;;;;;8.13;7.32;;;31.00;93.30;;;;;;7398118;19;19918;-81
2022/08/14 12:35:36;;;;;;;7.72;7.00;;;31.00;93.10;;;;;;7397335;19;20111;-81
2022/08/14 12:38:02;;;;;;;8.75;7.18;;;31.00;93.30;;;;;;7399117;19;20082;-80
2022/08/14 12:40:30;;;;;;;6.90;6.30;;;31.10;92.70;;;;;;7398675;19;20595;-80
2022/08/14 12:43:02;;;;;;;7.07;6.40;;;31.30;92.90;;;;;;7399247;19;20074;-80
2022/08/14 12:45:35;;;;;;;7.78;6.43;;;31.40;92.40;;;;;;7399266;19;20014;-80
2022/08/14 12:48:04;;;;;;;;;;;31.10;92.60;;;;;;7400097;19;20007;-80
2022/08/14 12:50:38;;;;;;;7.57;6.72;;;30.80;92.90;;;;;;7398852;19;19921;-80
2022/08/14 12:53:08;;;;;;;7.68;6.95;;;30.80;92.80;;;;;;7398686;19;20010;-80
2022/08/14 12:55:35;;;;;;;7.55;6.63;;;30.90;93.10;;;;;;7398256;19;20011;-80
2022/08/14 12:58:06;;;;;;;10.45;6.90;;;31.00;92.60;;;;;;7402160;19;20010;-80
2022/08/14 13:00:37;;;;;;;10.15;6.72;;;31.00;92.90;;;;;;7397881;19;20502;-80
2022/08/14 13:03:04;;;;;;;8.13;7.03;;;30.90;92.70;;;;;;7398553;19;20010;-81
2022/08/14 13:05:33;;;;;;;8.02;6.97;;;30.90;93.00;;;;;;7398460;19;20043;-81